Aeroporto :
LOGIN :

Iscrizione | Disclaimer

   EN    FR    IT 

 










Sommario :    VFR   VFR Marginale   IFR   IFR Intensivo   IFR Molto Intensivo
Visibilità : 
Base nubi : 
>= 8 km
>= 3000ft
5 / 8 km
1000 / 3000 ft
1500m / 5 km
500 / 1000 ft
800 / 1500m
200 / 500 ft
< 800m
< 200 ft
Simboli :   Temporali  Nebbia  Neve Forte  Precipitazioni Forti  Vento > 20 kt
SIGMETs :   Varie  Temporali  Ghiacco  Turbolenza  Onda orograficha  Ceneri Vulcaniche






- Altitudine del aeroporto : 325 ft
- Codice IATA : BES


LFRB - Brest

ULTIMO METAR :
  • 171130Z AUTO 27018G29KT 230V290 9999 SCT036/// SCT045/// ///CB 10/03 Q1019 TEMPO 4000 SHRA

METARs OBSOLETI :
  • 171100Z AUTO 25017G33KT 230V290 9999 3700 R07/1400U FEW035 BKN047 10/04 Q1018 TEMPO 4000 SHRA SCT012CB BKN020
  • 171030Z AUTO 27016KT 9999 BKN035 BKN043 BKN052 09/04 Q1018 TEMPO 26020G30KT 4000 SHRA SCT012CB BKN020
  • 171000Z AUTO 26017KT 9999 BKN035 BKN043 10/04 Q1017 TEMPO 26020G30KT 4000 SHRA SCT012CB BKN020
  • 170930Z AUTO 26014KT 220V290 9999 SCT037 BKN045 BKN054 09/04 Q1017 TEMPO 26020G30KT 4000 SHRA SCT012CB BKN020
  • 170900Z AUTO 26014KT 230V290 9999 BKN039 BKN047 09/03 Q1016 TEMPO 26020G30KT 4000 SHRA SCT012CB BKN020

TAF TAF LFRB
Valido dal 17 a 12 ore il 18 a 18 ore UTC


171100Z 1712/1818 25016KT 9999 SCT030 BKN045
TEMPO 1712/1718 26020G35KT 4000 SHRA SCT012CB BKN020
PROB30
TEMPO 1718/1818 SHRA
ATIS : +33 2 98 32 02 71



MetMap, La meteo Aeronautica in un colpo d'occhio ! - Copyright ORBIFLY Dicembre 2007 - Disclaimer

ORBIFLY MET'MAP TEAM :

Programmazione e sviluppo : Alexandra Zaïnal
Concezione : Baudouin d'Aumeries
Aiuto per la programmazione : Marc-Olivier Méhu
Supporto tecnico e logistico : Manuel Goepfert
Aiuto per la traduzione : Arnaldo La Scala

Contatto : metmap@orbifly.com




FONTI E CREDITI :

   NOAA